createdAt,value
2022-11-12T00:00:44.949Z,26.05
2022-11-12T00:02:46.313Z,25.00
2022-11-12T00:04:47.626Z,23.85
2022-11-12T00:06:49.180Z,25.20
2022-11-12T00:08:50.583Z,24.98
2022-11-12T00:10:52.012Z,24.83
2022-11-12T00:12:53.725Z,25.45
2022-11-12T00:14:55.069Z,26.83
2022-11-12T00:16:56.466Z,26.38
2022-11-12T00:19:00.343Z,24.83
2022-11-12T00:21:01.773Z,25.63
2022-11-12T00:23:03.335Z,26.45
2022-11-12T00:25:05.061Z,26.35
2022-11-12T00:27:06.479Z,23.02
2022-11-12T00:29:07.955Z,26.02
2022-11-12T00:31:13.032Z,26.38
2022-11-12T00:33:14.410Z,26.98
2022-11-12T00:35:15.824Z,27.10
2022-11-12T00:37:17.850Z,28.67
2022-11-12T00:39:19.391Z,30.77
2022-11-12T00:41:20.880Z,25.88
2022-11-12T00:43:22.237Z,28.23
2022-11-12T00:45:23.732Z,25.98
2022-11-12T00:47:25.072Z,29.33
2022-11-12T00:49:26.467Z,28.25
2022-11-12T00:51:27.968Z,25.55
2022-11-12T00:53:29.437Z,25.95
2022-11-12T00:55:30.937Z,26.98
2022-11-12T00:57:32.428Z,25.85
2022-11-12T00:59:33.957Z,26.92
2022-11-12T01:01:35.524Z,28.13
2022-11-12T01:03:37.602Z,27.55
2022-11-12T01:05:41.324Z,26.38
2022-11-12T01:07:42.844Z,29.02
2022-11-12T01:09:44.567Z,28.73
2022-11-12T01:11:45.977Z,27.02
2022-11-12T01:13:48.079Z,27.55
2022-11-12T01:15:49.429Z,27.70
2022-11-12T01:17:50.807Z,27.20
2022-11-12T01:19:52.291Z,27.40
2022-11-12T01:21:53.632Z,30.50
2022-11-12T01:23:56.764Z,28.23
2022-11-12T01:25:58.113Z,26.17
2022-11-12T01:27:59.556Z,26.95
2022-11-12T01:30:00.918Z,23.60
2022-11-12T01:32:02.228Z,29.08
2022-11-12T01:34:07.537Z,27.65
2022-11-12T01:36:09.750Z,28.48
2022-11-12T01:38:11.113Z,28.35
2022-11-12T01:40:12.632Z,29.13
2022-11-12T01:42:14.169Z,27.33
2022-11-12T01:44:15.630Z,28.13
2022-11-12T01:46:20.200Z,28.75
2022-11-12T01:48:34.328Z,27.77
2022-11-12T01:50:38.184Z,28.77
2022-11-12T01:53:01.099Z,28.73
2022-11-12T01:55:05.680Z,28.35
2022-11-12T01:57:08.543Z,27.20
2022-11-12T01:59:16.478Z,31.25
2022-11-12T02:01:18.190Z,28.38
2022-11-12T02:03:24.059Z,28.98
2022-11-12T02:05:29.449Z,29.05
2022-11-12T02:07:31.854Z,31.08
2022-11-12T02:09:33.495Z,27.77
2022-11-12T02:11:35.218Z,29.02
2022-11-12T02:13:55.405Z,28.85
2022-11-12T02:15:56.893Z,30.50
2022-11-12T02:17:58.329Z,31.63
2022-11-12T02:20:00.706Z,31.13
2022-11-12T02:22:02.050Z,29.33
2022-11-12T02:24:05.208Z,28.10
2022-11-12T02:26:06.627Z,28.58
2022-11-12T02:28:08.100Z,31.17
2022-11-12T02:30:09.790Z,31.00
2022-11-12T02:32:11.159Z,31.13
2022-11-12T02:34:12.492Z,28.45
2022-11-12T02:36:13.913Z,29.85
2022-11-12T02:38:15.229Z,29.48
2022-11-12T02:40:16.708Z,28.48
2022-11-12T02:42:18.141Z,27.70
2022-11-12T02:44:19.565Z,26.90
2022-11-12T02:46:21.153Z,26.15
2022-11-12T02:48:22.461Z,26.88
2022-11-12T02:50:24.005Z,25.65
2022-11-12T02:52:25.410Z,26.80
2022-11-12T02:54:26.887Z,27.23
2022-11-12T02:56:28.208Z,26.90
2022-11-12T02:58:29.729Z,26.83
2022-11-12T03:00:31.168Z,28.05
2022-11-12T03:02:32.633Z,22.95
2022-11-12T03:04:34.007Z,26.20
2022-11-12T03:06:35.405Z,27.67
2022-11-12T03:08:36.895Z,26.73
2022-11-12T03:10:39.121Z,28.25
2022-11-12T03:12:40.536Z,27.90
2022-11-12T03:14:41.912Z,29.70
2022-11-12T03:16:43.309Z,30.45
2022-11-12T03:18:44.737Z,28.10
2022-11-12T03:20:46.156Z,30.20
2022-11-12T03:22:56.565Z,29.90
2022-11-12T03:24:57.947Z,30.85
2022-11-12T03:26:59.337Z,30.25
2022-11-12T03:29:00.704Z,30.38
2022-11-12T03:31:02.380Z,28.15
2022-11-12T03:33:04.375Z,28.48
2022-11-12T03:35:06.072Z,30.67
2022-11-12T03:37:09.551Z,26.17
2022-11-12T03:39:11.046Z,28.23
2022-11-12T03:41:13.999Z,27.20
2022-11-12T03:43:15.513Z,29.48
2022-11-12T03:45:17.068Z,27.40
2022-11-12T03:47:18.416Z,29.00
2022-11-12T03:49:19.953Z,28.83
2022-11-12T03:51:21.457Z,29.48
2022-11-12T03:53:22.874Z,27.35
2022-11-12T03:55:25.725Z,27.75
2022-11-12T03:57:27.182Z,28.83
2022-11-12T03:59:28.538Z,26.92
2022-11-12T04:01:29.987Z,31.60
2022-11-12T04:03:31.494Z,28.90
2022-11-12T04:05:51.614Z,29.40
2022-11-12T04:08:16.372Z,26.73
2022-11-12T04:10:17.685Z,25.95
2022-11-12T04:12:37.756Z,28.45
2022-11-12T04:14:39.080Z,28.10
2022-11-12T04:16:59.064Z,26.65
2022-11-12T04:19:19.692Z,24.48
2022-11-12T04:21:39.698Z,25.17
2022-11-12T04:23:41.006Z,23.03
2022-11-12T04:26:01.006Z,23.58
2022-11-12T04:28:02.437Z,19.88
2022-11-12T04:30:16.000Z,19.73
2022-11-12T04:32:17.362Z,21.25
2022-11-12T04:34:30.819Z,19.73
2022-11-12T04:36:32.211Z,18.13
2022-11-12T04:38:33.642Z,19.05
2022-11-12T04:40:53.505Z,19.60
2022-11-12T04:43:13.244Z,19.95
2022-11-12T04:45:14.611Z,20.33
2022-11-12T04:47:15.989Z,19.67
2022-11-12T04:49:17.433Z,20.60
2022-11-12T04:51:37.279Z,20.25
2022-11-12T04:53:38.605Z,20.70
2022-11-12T04:55:40.347Z,19.77
2022-11-12T04:57:41.664Z,20.30
2022-11-12T04:59:43.000Z,22.55
2022-11-12T05:01:44.426Z,20.35
2022-11-12T05:03:45.839Z,18.25
2022-11-12T05:05:47.221Z,16.60
2022-11-12T05:07:48.484Z,16.08
2022-11-12T05:09:49.858Z,15.30
2022-11-12T05:11:51.570Z,16.35
2022-11-12T05:13:53.011Z,14.38
2022-11-12T05:15:54.326Z,14.55
2022-11-12T05:17:55.725Z,14.55
2022-11-12T05:19:57.049Z,16.27
2022-11-12T05:22:10.937Z,13.52
2022-11-12T05:24:40.368Z,19.48
2022-11-12T05:26:40.505Z,12.40
2022-11-12T05:28:41.928Z,12.20
2022-11-12T05:30:43.250Z,11.75
2022-11-12T05:32:44.645Z,9.48
2022-11-12T05:34:46.118Z,8.68
2022-11-12T05:36:47.492Z,8.52
2022-11-12T05:38:48.805Z,6.82
2022-11-12T05:40:50.208Z,6.95
2022-11-12T05:42:51.576Z,6.38
2022-11-12T05:44:53.042Z,7.53
2022-11-12T05:46:54.497Z,7.07
2022-11-12T05:48:55.954Z,6.70
2022-11-12T05:51:13.606Z,6.65
2022-11-12T05:53:15.353Z,5.93
2022-11-12T05:55:16.867Z,6.43
2022-11-12T05:57:18.193Z,6.47
2022-11-12T05:59:19.527Z,6.70
2022-11-12T06:01:21.002Z,7.38
2022-11-12T06:03:22.456Z,5.35
2022-11-12T06:05:23.829Z,6.25
2022-11-12T06:07:25.172Z,6.32
2022-11-12T06:09:26.481Z,5.47
2022-11-12T06:11:28.009Z,6.05
2022-11-12T06:13:29.483Z,6.25
2022-11-12T06:15:33.956Z,5.65
2022-11-12T06:17:39.434Z,5.60
2022-11-12T06:19:40.771Z,6.28
2022-11-12T06:21:42.079Z,6.05
2022-11-12T06:23:43.743Z,6.00
2022-11-12T06:25:45.101Z,6.40
2022-11-12T06:27:46.389Z,6.53
2022-11-12T06:29:47.666Z,5.90
2022-11-12T06:31:49.501Z,6.57
2022-11-12T06:33:51.026Z,8.10
2022-11-12T06:36:02.887Z,6.40
2022-11-12T06:38:04.279Z,5.97
2022-11-12T06:40:05.839Z,6.40
2022-11-12T06:42:07.154Z,6.28
2022-11-12T06:44:08.494Z,7.22
2022-11-12T06:46:16.562Z,6.57
2022-11-12T06:48:17.966Z,7.13
2022-11-12T06:50:19.434Z,7.88
2022-11-12T06:52:20.866Z,6.18
2022-11-12T06:54:22.289Z,7.60
2022-11-12T06:56:23.900Z,7.13
2022-11-12T06:58:25.667Z,6.50
2022-11-12T07:00:27.496Z,6.95
2022-11-12T07:02:28.916Z,7.60
2022-11-12T07:04:30.293Z,7.72
2022-11-12T07:06:33.310Z,7.40
2022-11-12T07:08:35.156Z,6.55
2022-11-12T07:10:36.616Z,10.10
2022-11-12T07:12:38.014Z,7.43
2022-11-12T07:14:39.367Z,6.78
2022-11-12T07:16:40.832Z,6.30
2022-11-12T07:18:42.193Z,7.50
2022-11-12T07:20:43.590Z,7.63
2022-11-12T07:22:44.995Z,6.25
2022-11-12T07:24:46.449Z,6.45
2022-11-12T07:26:47.932Z,6.57
2022-11-12T07:28:50.299Z,8.80
2022-11-12T07:30:58.719Z,7.72
2022-11-12T07:33:00.197Z,10.93
2022-11-12T07:35:01.573Z,6.20
2022-11-12T07:37:02.971Z,7.95
2022-11-12T07:39:04.288Z,7.28
2022-11-12T07:41:11.178Z,6.50
2022-11-12T07:43:12.588Z,8.13
2022-11-12T07:45:13.993Z,6.40
2022-11-12T07:47:15.344Z,10.13
2022-11-12T07:49:16.784Z,7.90
2022-11-12T07:51:19.102Z,7.47
2022-11-12T07:53:20.572Z,7.63
2022-11-12T07:55:21.891Z,8.60
2022-11-12T07:57:23.255Z,6.88
2022-11-12T07:59:24.616Z,7.68
2022-11-12T08:01:33.267Z,7.35
2022-11-12T08:03:35.254Z,6.82
2022-11-12T08:05:36.630Z,6.80
2022-11-12T08:07:38.024Z,8.27
2022-11-12T08:09:39.483Z,8.10
2022-11-12T08:11:42.134Z,9.50
2022-11-12T08:13:43.488Z,7.70
2022-11-12T08:15:49.466Z,8.27
2022-11-12T08:17:53.324Z,7.50
2022-11-12T08:19:55.251Z,9.63
2022-11-12T08:21:56.623Z,10.85
2022-11-12T08:23:57.900Z,8.73
2022-11-12T08:25:59.981Z,9.60
2022-11-12T08:28:01.410Z,7.85
2022-11-12T08:30:03.331Z,10.18
2022-11-12T08:32:04.723Z,9.68
2022-11-12T08:34:12.440Z,9.38
2022-11-12T08:36:14.848Z,8.68
2022-11-12T08:38:17.182Z,10.82
2022-11-12T08:40:18.475Z,8.30
2022-11-12T08:42:19.779Z,6.43
2022-11-12T08:44:23.542Z,8.27
2022-11-12T08:46:24.876Z,6.75
2022-11-12T08:48:27.222Z,7.82
2022-11-12T08:50:29.321Z,10.60
2022-11-12T08:52:30.589Z,6.63
2022-11-12T08:54:32.190Z,7.22
2022-11-12T08:56:34.163Z,7.53
2022-11-12T08:58:35.640Z,7.88
2022-11-12T09:00:38.583Z,7.05
2022-11-12T09:02:39.913Z,7.88
2022-11-12T09:04:41.216Z,6.72
2022-11-12T09:06:43.883Z,7.70
2022-11-12T09:08:45.369Z,9.05
2022-11-12T09:10:47.043Z,10.95
2022-11-12T09:12:52.294Z,8.45
2022-11-12T09:14:59.642Z,11.75
2022-11-12T09:17:11.531Z,9.10
2022-11-12T09:19:13.033Z,11.88
2022-11-12T09:21:14.508Z,18.95
2022-11-12T09:23:16.234Z,13.63
2022-11-12T09:25:17.852Z,17.45
2022-11-12T09:27:19.333Z,15.55
2022-11-12T09:29:20.881Z,13.27
2022-11-12T09:31:22.266Z,16.52
2022-11-12T09:33:24.810Z,12.95
2022-11-12T09:35:26.115Z,13.85
2022-11-12T09:37:27.614Z,13.43
2022-11-12T09:39:31.905Z,13.80
2022-11-12T09:41:36.185Z,13.88
2022-11-12T09:43:41.161Z,15.90
2022-11-12T09:45:50.317Z,14.70
2022-11-12T09:48:06.517Z,15.43
2022-11-12T09:50:17.125Z,16.52
2022-11-12T09:52:26.369Z,15.38
2022-11-12T09:54:31.384Z,15.73
2022-11-12T09:56:32.950Z,16.05
2022-11-12T09:58:34.437Z,14.68
2022-11-12T10:00:38.207Z,14.75
2022-11-12T10:02:55.488Z,13.75
2022-11-12T10:05:02.496Z,15.65
2022-11-12T10:07:09.715Z,14.77
2022-11-12T10:09:20.409Z,15.57
2022-11-12T10:11:31.062Z,12.98
2022-11-12T10:13:35.636Z,17.00
2022-11-12T10:16:14.921Z,15.10
2022-11-12T10:18:23.754Z,14.63
2022-11-12T10:20:38.926Z,16.30
2022-11-12T10:23:05.191Z,15.93
2022-11-12T10:25:25.495Z,14.85
2022-11-12T10:27:31.929Z,14.65
2022-11-12T10:29:51.161Z,16.00
2022-11-12T10:31:52.693Z,15.00
2022-11-12T10:34:12.299Z,14.65
2022-11-12T10:36:28.769Z,14.57
2022-11-12T10:38:31.694Z,14.30
2022-11-12T10:40:38.526Z,14.07
2022-11-12T10:42:55.951Z,12.15
2022-11-12T10:45:16.859Z,15.40
2022-11-12T10:49:25.363Z,15.27
2022-11-12T10:51:30.080Z,16.30
2022-11-12T10:53:31.696Z,20.38
2022-11-12T10:55:43.650Z,15.25
2022-11-12T10:58:07.010Z,14.32
2022-11-12T11:00:31.103Z,13.75
2022-11-12T11:02:37.359Z,15.05
2022-11-12T11:04:41.466Z,13.98
2022-11-12T11:06:43.120Z,16.15
2022-11-12T11:09:07.929Z,14.38
2022-11-12T11:11:14.466Z,14.93
2022-11-12T11:13:41.946Z,14.00
2022-11-12T11:15:57.123Z,16.13
2022-11-12T11:18:07.360Z,16.00
2022-11-12T11:20:16.752Z,13.57
2022-11-12T11:22:21.305Z,16.05
2022-11-12T11:24:31.743Z,15.82
2022-11-12T11:26:40.477Z,13.52
2022-11-12T11:29:02.277Z,14.10
2022-11-12T11:31:15.999Z,13.93
2022-11-12T11:33:17.460Z,14.27
2022-11-12T11:35:25.478Z,15.13
2022-11-12T11:37:30.472Z,15.02
2022-11-12T11:39:52.594Z,14.07
2022-11-12T11:42:00.333Z,16.38
2022-11-12T11:44:04.336Z,15.15
2022-11-12T11:46:16.223Z,14.45
2022-11-12T11:48:39.166Z,13.20
2022-11-12T11:50:56.423Z,13.02
2022-11-12T11:53:21.941Z,13.52
2022-11-12T11:55:39.758Z,11.55
2022-11-12T11:57:56.350Z,16.25
2022-11-12T12:00:04.758Z,13.85
2022-11-12T12:02:14.099Z,13.13
2022-11-12T12:04:34.191Z,14.30
2022-11-12T12:06:37.607Z,14.70
2022-11-12T12:08:51.296Z,13.15
2022-11-12T12:11:10.724Z,16.23
2022-11-12T12:13:12.742Z,14.52
2022-11-12T12:15:21.549Z,14.25
2022-11-12T12:17:41.973Z,14.98
2022-11-12T12:19:56.146Z,13.85
2022-11-12T12:21:58.851Z,15.38
2022-11-12T12:24:10.730Z,14.18
2022-11-12T12:26:15.145Z,12.80
2022-11-12T12:28:36.965Z,14.27
2022-11-12T12:30:41.276Z,14.60
2022-11-12T12:33:12.731Z,13.75
2022-11-12T12:35:14.223Z,12.32
2022-11-12T12:37:35.975Z,13.13
2022-11-12T12:39:56.581Z,25.10
2022-11-12T12:42:15.734Z,14.32
2022-11-12T12:44:17.127Z,13.30
2022-11-12T12:46:21.499Z,14.88
2022-11-12T12:48:27.251Z,12.98
2022-11-12T12:50:29.205Z,16.52
2022-11-12T12:52:30.572Z,16.15
2022-11-12T12:54:34.539Z,17.98
2022-11-12T12:56:35.914Z,16.17
2022-11-12T12:58:40.376Z,18.42
2022-11-12T13:01:03.825Z,17.48
2022-11-12T13:03:06.093Z,19.65
2022-11-12T13:05:27.319Z,19.65
2022-11-12T13:07:43.452Z,19.05
2022-11-12T13:09:44.832Z,19.10
2022-11-12T13:12:05.267Z,21.25
2022-11-12T13:14:25.540Z,19.83
2022-11-12T13:16:45.402Z,23.17
2022-11-12T13:18:52.553Z,22.48
2022-11-12T13:21:09.367Z,25.92
2022-11-12T13:23:11.949Z,25.50
2022-11-12T13:25:13.351Z,26.60
2022-11-12T13:27:14.684Z,22.90
2022-11-12T13:29:18.893Z,24.13
2022-11-12T13:31:27.875Z,26.90
2022-11-12T13:33:31.029Z,26.00
2022-11-12T13:35:35.430Z,24.33
2022-11-12T13:37:42.428Z,27.15
2022-11-12T13:39:43.913Z,24.48
2022-11-12T13:42:04.501Z,25.83
2022-11-12T13:44:08.054Z,24.77
2022-11-12T13:46:12.027Z,24.25
2022-11-12T13:48:18.267Z,26.67
2022-11-12T13:50:21.193Z,25.98
2022-11-12T13:52:22.722Z,25.63
2022-11-12T13:54:24.942Z,25.48
2022-11-12T13:56:33.614Z,26.95
2022-11-12T13:58:35.967Z,26.20
2022-11-12T14:00:37.597Z,26.27
2022-11-12T14:02:42.014Z,24.77
2022-11-12T14:04:43.447Z,25.23
2022-11-12T14:06:50.639Z,25.73
2022-11-12T14:09:02.583Z,25.27
2022-11-12T14:11:30.006Z,26.58
2022-11-12T14:13:43.425Z,24.83
2022-11-12T14:15:53.418Z,26.02
2022-11-12T14:18:05.320Z,26.70
2022-11-12T14:20:19.733Z,26.88
2022-11-12T14:22:21.781Z,26.90
2022-11-12T14:24:23.238Z,26.77
2022-11-12T14:26:38.192Z,26.95
2022-11-12T14:28:40.162Z,26.80
2022-11-12T14:30:44.749Z,31.65
2022-11-12T14:32:47.063Z,29.73
2022-11-12T14:34:48.442Z,29.55
2022-11-12T14:36:50.667Z,29.27
2022-11-12T14:38:53.725Z,32.38
2022-11-12T14:40:56.793Z,32.13
2022-11-12T14:42:58.360Z,31.42
2022-11-12T14:44:59.737Z,33.45
2022-11-12T14:47:01.555Z,29.90
2022-11-12T14:49:02.863Z,32.60
2022-11-12T14:51:05.921Z,33.33
2022-11-12T14:53:25.009Z,36.95
2022-11-12T14:55:30.066Z,36.75
2022-11-12T14:57:32.555Z,36.63
2022-11-12T14:59:33.912Z,37.72
2022-11-12T15:04:26.030Z,38.10
2022-11-12T15:06:29.563Z,36.88
2022-11-12T15:08:32.335Z,35.35
2022-11-12T15:10:43.974Z,36.20
2022-11-12T15:12:45.348Z,33.83
2022-11-12T15:14:46.767Z,32.65
2022-11-12T15:16:48.429Z,35.33
2022-11-12T15:19:02.795Z,36.42
2022-11-12T15:21:04.103Z,31.17
2022-11-12T15:23:05.560Z,35.80
2022-11-12T15:25:27.312Z,37.22
2022-11-12T15:27:38.877Z,36.10
2022-11-12T15:29:40.352Z,35.60
2022-11-12T15:31:55.278Z,35.97
2022-11-12T15:34:16.397Z,36.85
2022-11-12T15:36:19.240Z,38.50
2022-11-12T15:38:24.187Z,39.45
2022-11-12T15:40:25.540Z,35.42
2022-11-12T15:42:26.921Z,36.10
2022-11-12T15:44:32.085Z,39.85
2022-11-12T15:46:33.475Z,40.90
2022-11-12T15:48:34.884Z,38.70
2022-11-12T15:50:36.205Z,39.88
2022-11-12T15:52:37.533Z,44.33
2022-11-12T15:54:41.229Z,43.45
2022-11-12T15:56:43.253Z,42.15
2022-11-12T15:58:44.862Z,40.45
2022-11-12T16:00:46.635Z,38.45
2022-11-12T16:02:51.822Z,36.58
2022-11-12T16:04:53.248Z,39.28
2022-11-12T16:06:54.619Z,40.15
2022-11-12T16:08:58.863Z,39.88
2022-11-12T16:11:00.308Z,42.90
2022-11-12T16:13:02.499Z,40.55
2022-11-12T16:15:03.954Z,41.08
2022-11-12T16:17:06.584Z,38.55
2022-11-12T16:19:14.920Z,36.97
2022-11-12T16:21:20.701Z,39.58
2022-11-12T16:23:22.419Z,38.33
2022-11-12T16:25:25.003Z,39.85
2022-11-12T16:27:26.422Z,38.65
2022-11-12T16:29:27.771Z,38.05
2022-11-12T16:31:29.437Z,36.35
2022-11-12T16:33:30.975Z,36.30
2022-11-12T16:35:34.017Z,35.33
2022-11-12T16:37:38.245Z,37.75
2022-11-12T16:39:39.763Z,38.28
2022-11-12T16:41:41.130Z,39.60
2022-11-12T16:43:42.477Z,41.67
2022-11-12T16:45:45.277Z,40.50
2022-11-12T16:47:50.660Z,39.60
2022-11-12T16:49:52.058Z,41.40
2022-11-12T16:51:53.385Z,38.58
2022-11-12T16:53:54.745Z,38.78
2022-11-12T16:55:56.512Z,39.80
2022-11-12T16:57:57.998Z,41.22
2022-11-12T16:59:59.455Z,37.95
2022-11-12T17:02:00.850Z,40.88
2022-11-12T17:04:02.355Z,41.88
2022-11-12T17:06:03.728Z,39.53
2022-11-12T17:08:05.140Z,41.95
2022-11-12T17:10:06.646Z,41.03
2022-11-12T17:12:08.336Z,39.97
2022-11-12T17:14:10.954Z,40.05
2022-11-12T17:16:12.353Z,42.30
2022-11-12T17:18:14.772Z,41.38
2022-11-12T17:20:16.302Z,43.88
2022-11-12T17:22:20.015Z,45.63
2022-11-12T17:24:21.380Z,38.80
2022-11-12T17:26:22.935Z,39.72
2022-11-12T17:28:24.307Z,39.30
2022-11-12T17:30:25.714Z,39.40
2022-11-12T17:32:27.090Z,42.45
2022-11-12T17:34:28.400Z,37.17
2022-11-12T17:36:29.776Z,39.88
2022-11-12T17:38:31.177Z,39.13
2022-11-12T17:40:32.603Z,40.63
2022-11-12T17:42:33.996Z,37.00
2022-11-12T17:44:35.420Z,40.78
2022-11-12T17:46:37.363Z,44.55
2022-11-12T17:48:38.983Z,41.00
2022-11-12T17:50:40.406Z,41.15
2022-11-12T17:52:41.750Z,39.63
2022-11-12T17:54:43.072Z,37.72
2022-11-12T17:56:44.420Z,39.65
2022-11-12T17:58:45.986Z,38.47
2022-11-12T18:00:47.429Z,38.22
2022-11-12T18:02:48.767Z,38.15
2022-11-12T18:04:50.031Z,41.80
2022-11-12T18:06:51.438Z,37.17
2022-11-12T18:08:56.678Z,36.03
2022-11-12T18:10:58.045Z,41.13
2022-11-12T18:12:59.468Z,37.85
2022-11-12T18:15:00.885Z,40.67
2022-11-12T18:17:02.155Z,38.42
2022-11-12T18:19:03.575Z,39.08
2022-11-12T18:21:15.073Z,40.55
2022-11-12T18:23:16.694Z,39.47
2022-11-12T18:25:18.228Z,37.38
2022-11-12T18:27:19.961Z,44.60
2022-11-12T18:29:21.283Z,40.88
2022-11-12T18:31:23.077Z,38.28
2022-11-12T18:33:24.455Z,37.15
2022-11-12T18:35:29.752Z,42.45
2022-11-12T18:37:31.420Z,37.03
2022-11-12T18:39:32.670Z,40.40
2022-11-12T18:41:34.096Z,37.95
2022-11-12T18:43:36.076Z,37.78
2022-11-12T18:45:37.389Z,38.05
2022-11-12T18:47:38.983Z,42.30
2022-11-12T18:49:40.743Z,41.67
2022-11-12T18:51:42.143Z,42.22
2022-11-12T18:53:43.627Z,39.85
2022-11-12T18:55:45.015Z,41.17
2022-11-12T18:57:46.336Z,41.40
2022-11-12T18:59:47.883Z,40.65
2022-11-12T19:01:49.175Z,39.20
2022-11-12T19:03:54.827Z,36.38
2022-11-12T19:05:59.605Z,37.67
2022-11-12T19:08:00.967Z,40.30
2022-11-12T19:10:14.600Z,39.15
2022-11-12T19:12:16.450Z,37.90
2022-11-12T19:14:17.787Z,37.28
2022-11-12T19:16:20.084Z,41.35
2022-11-12T19:18:21.415Z,39.20
2022-11-12T19:20:22.795Z,35.72
2022-11-12T19:22:24.143Z,39.50
2022-11-12T19:24:25.389Z,38.88
2022-11-12T19:26:26.747Z,41.22
2022-11-12T19:28:28.449Z,42.42
2022-11-12T19:30:30.082Z,40.80
2022-11-12T19:32:31.383Z,45.38
2022-11-12T19:34:32.787Z,43.90
2022-11-12T19:36:34.376Z,39.95
2022-11-12T19:38:35.690Z,40.60
2022-11-12T19:40:37.301Z,41.13
2022-11-12T19:42:38.614Z,40.47
2022-11-12T19:44:40.363Z,34.80
2022-11-12T19:46:41.836Z,39.70
2022-11-12T19:48:43.412Z,40.65
2022-11-12T19:50:44.706Z,43.78
2022-11-12T19:52:46.086Z,40.33
2022-11-12T19:54:47.421Z,42.85
2022-11-12T19:56:48.699Z,39.63
2022-11-12T19:58:50.346Z,36.55
2022-11-12T20:00:51.714Z,37.47
2022-11-12T20:02:53.104Z,35.50
2022-11-12T20:04:54.503Z,35.08
2022-11-12T20:06:56.007Z,32.45
2022-11-12T20:09:00.471Z,33.00
2022-11-12T20:11:02.362Z,34.63
2022-11-12T20:13:03.747Z,32.58
2022-11-12T20:15:05.234Z,32.40
2022-11-12T20:17:06.613Z,31.63
2022-11-12T20:19:07.856Z,30.13
2022-11-12T20:21:10.619Z,33.40
2022-11-12T20:23:11.905Z,31.02
2022-11-12T20:25:13.246Z,27.98
2022-11-12T20:27:15.130Z,26.48
2022-11-12T20:29:16.453Z,25.60
2022-11-12T20:31:21.661Z,24.92
2022-11-12T20:33:23.079Z,23.08
2022-11-12T20:35:24.505Z,25.95
2022-11-12T20:37:25.918Z,24.17
2022-11-12T20:39:27.356Z,25.27
2022-11-12T20:41:29.447Z,22.02
2022-11-12T20:43:30.733Z,22.63
2022-11-12T20:45:32.748Z,22.25
2022-11-12T20:47:34.071Z,23.02
2022-11-12T20:49:35.417Z,23.10
2022-11-12T20:51:36.916Z,22.50
2022-11-12T20:53:38.248Z,23.13
2022-11-12T20:55:39.544Z,20.45
2022-11-12T20:57:40.880Z,23.17
2022-11-12T20:59:43.147Z,21.10
2022-11-12T21:01:44.722Z,20.05
2022-11-12T21:03:46.513Z,19.52
2022-11-12T21:05:47.833Z,22.05
2022-11-12T21:07:49.175Z,23.50
2022-11-12T21:09:50.517Z,21.90
2022-11-12T21:11:51.809Z,24.85
2022-11-12T21:13:53.120Z,24.63
2022-11-12T21:15:57.168Z,25.77
2022-11-12T21:17:58.485Z,25.17
2022-11-12T21:19:59.968Z,32.65
2022-11-12T21:22:01.431Z,25.80
2022-11-12T21:24:05.104Z,22.73
2022-11-12T21:26:13.633Z,20.08
2022-11-12T21:28:14.905Z,23.75
2022-11-12T21:30:16.245Z,21.25
2022-11-12T21:32:17.537Z,19.40
2022-11-12T21:34:18.969Z,20.65
2022-11-12T21:36:21.053Z,20.63
2022-11-12T21:38:22.831Z,21.88
2022-11-12T21:40:25.260Z,20.92
2022-11-12T21:42:26.569Z,21.30
2022-11-12T21:44:27.849Z,18.92
2022-11-12T21:46:30.204Z,22.75
2022-11-12T21:48:31.523Z,21.63
2022-11-12T21:50:32.825Z,20.83
2022-11-12T21:52:34.111Z,21.17
2022-11-12T21:54:35.494Z,19.80
2022-11-12T21:56:38.005Z,19.27
2022-11-12T21:58:39.644Z,20.15
2022-11-12T22:00:42.561Z,20.75
2022-11-12T22:02:44.369Z,20.20
2022-11-12T22:04:45.715Z,21.88
2022-11-12T22:06:47.025Z,19.88
2022-11-12T22:08:51.123Z,21.15
2022-11-12T22:10:52.477Z,20.80
2022-11-12T22:13:24.705Z,19.38
2022-11-12T22:15:17.799Z,19.17
2022-11-12T22:17:21.526Z,20.05
2022-11-12T22:19:23.651Z,21.02
2022-11-12T22:21:29.589Z,21.33
2022-11-12T22:23:35.959Z,18.88
2022-11-12T22:25:37.314Z,19.98
2022-11-12T22:27:38.612Z,20.40
2022-11-12T22:29:40.010Z,19.00
2022-11-12T22:31:41.346Z,22.27
2022-11-12T22:33:42.795Z,20.25
2022-11-12T22:35:44.157Z,19.05
2022-11-12T22:37:45.501Z,19.25
2022-11-12T22:39:46.867Z,16.85
2022-11-12T22:41:48.245Z,20.40
2022-11-12T22:43:50.612Z,20.75
2022-11-12T22:45:51.879Z,18.42
2022-11-12T22:47:53.303Z,20.58
2022-11-12T22:49:54.652Z,18.92
2022-11-12T22:51:56.031Z,20.10
2022-11-12T22:53:58.787Z,20.17
2022-11-12T22:56:07.614Z,19.98
2022-11-12T22:58:09.053Z,19.95
2022-11-12T23:00:11.207Z,20.70
2022-11-12T23:02:12.522Z,18.23
2022-11-12T23:04:13.835Z,21.30
2022-11-12T23:06:15.470Z,19.80
2022-11-12T23:08:16.785Z,20.85
2022-11-12T23:10:18.098Z,18.67
2022-11-12T23:12:19.545Z,20.00
2022-11-12T23:14:21.017Z,17.75
2022-11-12T23:16:23.603Z,19.88
2022-11-12T23:18:25.195Z,17.17
2022-11-12T23:20:27.033Z,20.25
2022-11-12T23:22:28.392Z,19.88
2022-11-12T23:24:29.729Z,19.52
2022-11-12T23:26:31.235Z,19.17
2022-11-12T23:28:33.954Z,17.73
2022-11-12T23:30:35.641Z,18.95
2022-11-12T23:32:36.981Z,18.52
2022-11-12T23:34:38.273Z,19.02
2022-11-12T23:36:39.798Z,18.02
2022-11-12T23:38:41.656Z,19.10
2022-11-12T23:40:43.364Z,18.10
2022-11-12T23:42:44.671Z,19.35
2022-11-12T23:44:46.482Z,18.52
2022-11-12T23:46:47.923Z,17.98
2022-11-12T23:48:49.258Z,18.05
2022-11-12T23:50:51.039Z,17.88
2022-11-12T23:52:52.351Z,19.95
2022-11-12T23:54:53.672Z,17.73
2022-11-12T23:56:54.984Z,20.65
2022-11-12T23:58:56.490Z,19.35
